sensor_id;sensor_type;location;lat;lon;timestamp;pressure;altitude;pressure_sealevel;temperature;humidity
10668;BME280;5382;42.136;24.796;2023-04-27T00:00:47;99397.22;;;12.72;100.00
10668;BME280;5382;42.136;24.796;2023-04-27T00:03:14;99421.25;;;12.70;100.00
10668;BME280;5382;42.136;24.796;2023-04-27T00:05:42;99405.75;;;12.65;100.00
10668;BME280;5382;42.136;24.796;2023-04-27T00:08:08;99425.97;;;12.66;100.00
10668;BME280;5382;42.136;24.796;2023-04-27T00:10:35;99424.59;;;12.62;100.00
10668;BME280;5382;42.136;24.796;2023-04-27T00:13:02;99420.53;;;12.58;100.00
10668;BME280;5382;42.136;24.796;2023-04-27T00:15:29;99417.88;;;12.58;100.00
10668;BME280;5382;42.136;24.796;2023-04-27T00:17:56;99415.75;;;12.62;100.00
10668;BME280;5382;42.136;24.796;2023-04-27T00:20:23;99423.50;;;12.65;100.00
10668;BME280;5382;42.136;24.796;2023-04-27T00:22:51;99437.44;;;12.57;100.00
10668;BME280;5382;42.136;24.796;2023-04-27T00:25:17;99434.63;;;12.59;100.00
10668;BME280;5382;42.136;24.796;2023-04-27T00:27:44;99428.59;;;12.57;100.00
10668;BME280;5382;42.136;24.796;2023-04-27T00:30:11;99416.00;;;12.49;100.00
10668;BME280;5382;42.136;24.796;2023-04-27T00:32:38;99447.84;;;12.49;100.00
10668;BME280;5382;42.136;24.796;2023-04-27T00:35:07;99452.44;;;12.37;100.00
10668;BME280;5382;42.136;24.796;2023-04-27T00:37:34;99446.97;;;12.39;100.00
10668;BME280;5382;42.136;24.796;2023-04-27T00:40:05;99455.63;;;12.41;100.00
10668;BME280;5382;42.136;24.796;2023-04-27T00:42:32;99466.53;;;12.38;100.00
10668;BME280;5382;42.136;24.796;2023-04-27T00:44:59;99449.63;;;12.39;100.00
10668;BME280;5382;42.136;24.796;2023-04-27T00:47:26;99462.19;;;12.37;100.00
10668;BME280;5382;42.136;24.796;2023-04-27T00:49:52;99453.09;;;12.30;100.00
10668;BME280;5382;42.136;24.796;2023-04-27T00:52:19;99461.13;;;12.18;100.00
10668;BME280;5382;42.136;24.796;2023-04-27T00:54:48;99463.91;;;12.17;100.00
10668;BME280;5382;42.136;24.796;2023-04-27T00:57:17;99442.56;;;12.18;100.00
10668;BME280;5382;42.136;24.796;2023-04-27T00:59:44;99466.09;;;12.12;100.00
10668;BME280;5382;42.136;24.796;2023-04-27T01:02:11;99471.69;;;12.09;100.00
10668;BME280;5382;42.136;24.796;2023-04-27T01:04:38;99479.75;;;12.07;100.00
10668;BME280;5382;42.136;24.796;2023-04-27T01:07:05;99466.88;;;12.03;100.00
10668;BME280;5382;42.136;24.796;2023-04-27T01:09:32;99472.19;;;12.03;100.00
10668;BME280;5382;42.136;24.796;2023-04-27T01:11:59;99474.59;;;12.06;100.00
10668;BME280;5382;42.136;24.796;2023-04-27T01:14:28;99497.16;;;12.00;100.00
10668;BME280;5382;42.136;24.796;2023-04-27T01:16:55;99487.91;;;11.94;100.00
10668;BME280;5382;42.136;24.796;2023-04-27T01:19:22;99477.56;;;11.91;100.00
10668;BME280;5382;42.136;24.796;2023-04-27T01:21:49;99487.53;;;11.99;100.00
10668;BME280;5382;42.136;24.796;2023-04-27T01:24:17;99493.22;;;11.94;100.00
10668;BME280;5382;42.136;24.796;2023-04-27T01:26:44;99501.34;;;12.03;100.00
10668;BME280;5382;42.136;24.796;2023-04-27T01:29:11;99497.22;;;12.10;100.00
10668;BME280;5382;42.136;24.796;2023-04-27T01:31:38;99513.97;;;12.10;100.00
10668;BME280;5382;42.136;24.796;2023-04-27T01:34:04;99500.72;;;12.10;100.00
10668;BME280;5382;42.136;24.796;2023-04-27T01:36:31;99508.81;;;12.09;100.00
10668;BME280;5382;42.136;24.796;2023-04-27T01:38:58;99506.41;;;12.06;100.00
10668;BME280;5382;42.136;24.796;2023-04-27T01:41:26;99516.44;;;12.02;100.00
10668;BME280;5382;42.136;24.796;2023-04-27T01:43:53;99525.00;;;12.06;100.00
10668;BME280;5382;42.136;24.796;2023-04-27T01:46:20;99515.59;;;12.02;100.00
10668;BME280;5382;42.136;24.796;2023-04-27T01:48:46;99524.25;;;12.04;100.00
10668;BME280;5382;42.136;24.796;2023-04-27T01:51:13;99523.28;;;12.05;100.00
10668;BME280;5382;42.136;24.796;2023-04-27T01:53:40;99531.97;;;12.07;100.00
10668;BME280;5382;42.136;24.796;2023-04-27T01:56:08;99536.81;;;12.02;100.00
10668;BME280;5382;42.136;24.796;2023-04-27T01:58:36;99524.53;;;12.00;100.00
10668;BME280;5382;42.136;24.796;2023-04-27T02:01:03;99533.59;;;11.98;100.00
10668;BME280;5382;42.136;24.796;2023-04-27T02:03:30;99528.66;;;11.93;100.00
10668;BME280;5382;42.136;24.796;2023-04-27T02:05:57;99530.66;;;12.01;100.00
10668;BME280;5382;42.136;24.796;2023-04-27T02:08:24;99534.88;;;12.04;100.00
10668;BME280;5382;42.136;24.796;2023-04-27T02:10:50;99541.72;;;12.06;100.00
10668;BME280;5382;42.136;24.796;2023-04-27T02:13:18;99554.72;;;12.09;100.00
10668;BME280;5382;42.136;24.796;2023-04-27T02:15:47;99537.63;;;12.02;100.00
10668;BME280;5382;42.136;24.796;2023-04-27T02:18:13;99546.88;;;12.08;100.00
10668;BME280;5382;42.136;24.796;2023-04-27T02:20:40;99545.47;;;12.04;100.00
10668;BME280;5382;42.136;24.796;2023-04-27T02:23:07;99545.75;;;12.00;100.00
10668;BME280;5382;42.136;24.796;2023-04-27T02:25:35;99548.78;;;11.96;100.00
10668;BME280;5382;42.136;24.796;2023-04-27T02:28:02;99557.69;;;11.95;100.00
10668;BME280;5382;42.136;24.796;2023-04-27T02:30:29;99554.44;;;11.91;100.00
10668;BME280;5382;42.136;24.796;2023-04-27T02:32:58;99552.25;;;11.96;100.00
10668;BME280;5382;42.136;24.796;2023-04-27T02:35:25;99548.78;;;11.96;100.00
10668;BME280;5382;42.136;24.796;2023-04-27T02:37:52;99555.88;;;11.95;100.00
10668;BME280;5382;42.136;24.796;2023-04-27T02:40:18;99555.16;;;11.93;100.00
10668;BME280;5382;42.136;24.796;2023-04-27T02:42:45;99568.81;;;11.89;100.00
10668;BME280;5382;42.136;24.796;2023-04-27T02:45:12;99562.28;;;11.93;100.00
10668;BME280;5382;42.136;24.796;2023-04-27T02:47:39;99577.59;;;11.89;100.00
10668;BME280;5382;42.136;24.796;2023-04-27T02:50:08;99562.66;;;11.77;100.00
10668;BME280;5382;42.136;24.796;2023-04-27T02:52:35;99568.69;;;11.79;100.00
10668;BME280;5382;42.136;24.796;2023-04-27T02:55:02;99569.91;;;11.86;100.00
10668;BME280;5382;42.136;24.796;2023-04-27T02:57:29;99565.31;;;11.77;100.00
10668;BME280;5382;42.136;24.796;2023-04-27T02:59:56;99575.69;;;11.80;100.00
10668;BME280;5382;42.136;24.796;2023-04-27T03:02:22;99580.50;;;11.86;100.00
10668;BME280;5382;42.136;24.796;2023-04-27T03:04:51;99586.50;;;11.77;100.00
10668;BME280;5382;42.136;24.796;2023-04-27T03:07:21;99580.50;;;11.86;100.00
10668;BME280;5382;42.136;24.796;2023-04-27T03:09:47;99579.88;;;11.83;100.00
10668;BME280;5382;42.136;24.796;2023-04-27T03:12:14;99582.66;;;11.81;100.00
10668;BME280;5382;42.136;24.796;2023-04-27T03:14:41;99571.78;;;11.84;100.00
10668;BME280;5382;42.136;24.796;2023-04-27T03:17:08;99588.22;;;11.78;100.00
10668;BME280;5382;42.136;24.796;2023-04-27T03:19:35;99588.78;;;11.82;100.00
10668;BME280;5382;42.136;24.796;2023-04-27T03:22:01;99580.25;;;11.78;100.00
10668;BME280;5382;42.136;24.796;2023-04-27T03:24:30;99592.06;;;11.85;100.00
10668;BME280;5382;42.136;24.796;2023-04-27T03:26:57;99588.69;;;11.83;100.00
10668;BME280;5382;42.136;24.796;2023-04-27T03:29:24;99583.22;;;11.85;100.00
10668;BME280;5382;42.136;24.796;2023-04-27T03:31:51;99604.09;;;11.89;100.00
10668;BME280;5382;42.136;24.796;2023-04-27T03:34:17;99599.06;;;11.86;100.00
10668;BME280;5382;42.136;24.796;2023-04-27T03:36:45;99601.94;;;11.83;100.00
10668;BME280;5382;42.136;24.796;2023-04-27T03:39:12;99601.09;;;11.83;100.00
10668;BME280;5382;42.136;24.796;2023-04-27T03:41:40;99606.88;;;11.76;100.00
10668;BME280;5382;42.136;24.796;2023-04-27T03:44:07;99600.50;;;11.79;100.00
10668;BME280;5382;42.136;24.796;2023-04-27T03:46:34;99608.22;;;11.71;100.00
10668;BME280;5382;42.136;24.796;2023-04-27T03:49:00;99603.75;;;11.71;100.00
10668;BME280;5382;42.136;24.796;2023-04-27T03:51:29;99614.97;;;11.75;100.00
10668;BME280;5382;42.136;24.796;2023-04-27T03:53:56;99608.69;;;11.76;100.00
10668;BME280;5382;42.136;24.796;2023-04-27T03:56:23;99609.28;;;11.79;100.00
10668;BME280;5382;42.136;24.796;2023-04-27T03:58:51;99622.78;;;11.76;100.00
10668;BME280;5382;42.136;24.796;2023-04-27T04:01:18;99624.72;;;11.74;100.00
10668;BME280;5382;42.136;24.796;2023-04-27T04:03:46;99610.63;;;11.74;100.00
10668;BME280;5382;42.136;24.796;2023-04-27T04:06:13;99619.41;;;11.74;100.00
10668;BME280;5382;42.136;24.796;2023-04-27T04:08:39;99631.19;;;11.82;100.00
10668;BME280;5382;42.136;24.796;2023-04-27T04:11:06;99632.03;;;11.82;100.00
10668;BME280;5382;42.136;24.796;2023-04-27T04:13:33;99632.56;;;11.76;100.00
10668;BME280;5382;42.136;24.796;2023-04-27T04:16:02;99634.00;;;11.80;100.00
10668;BME280;5382;42.136;24.796;2023-04-27T04:18:29;99639.53;;;11.88;100.00
10668;BME280;5382;42.136;24.796;2023-04-27T04:20:56;99635.19;;;11.87;100.00
10668;BME280;5382;42.136;24.796;2023-04-27T04:23:23;99656.28;;;11.89;100.00
10668;BME280;5382;42.136;24.796;2023-04-27T04:25:50;99638.44;;;11.91;100.00
10668;BME280;5382;42.136;24.796;2023-04-27T04:28:17;99648.34;;;11.89;100.00
10668;BME280;5382;42.136;24.796;2023-04-27T04:30:43;99656.03;;;11.81;100.00
10668;BME280;5382;42.136;24.796;2023-04-27T04:33:12;99665.56;;;11.83;100.00
10668;BME280;5382;42.136;24.796;2023-04-27T04:35:39;99658.31;;;11.85;100.00
10668;BME280;5382;42.136;24.796;2023-04-27T04:38:06;99648.81;;;11.83;100.00
10668;BME280;5382;42.136;24.796;2023-04-27T04:40:33;99653.53;;;11.90;100.00
10668;BME280;5382;42.136;24.796;2023-04-27T04:43:01;99653.47;;;12.02;100.00
10668;BME280;5382;42.136;24.796;2023-04-27T04:45:27;99657.69;;;12.04;100.00
10668;BME280;5382;42.136;24.796;2023-04-27T04:47:54;99661.66;;;12.10;100.00
10668;BME280;5382;42.136;24.796;2023-04-27T04:50:23;99666.63;;;12.03;100.00
10668;BME280;5382;42.136;24.796;2023-04-27T04:52:50;99662.53;;;11.99;100.00
10668;BME280;5382;42.136;24.796;2023-04-27T04:55:16;99670.13;;;11.92;100.00
10668;BME280;5382;42.136;24.796;2023-04-27T04:57:43;99669.91;;;11.95;100.00
10668;BME280;5382;42.136;24.796;2023-04-27T05:00:11;99680.50;;;11.95;100.00
10668;BME280;5382;42.136;24.796;2023-04-27T05:02:38;99679.66;;;11.84;100.00
10668;BME280;5382;42.136;24.796;2023-04-27T05:05:06;99683.88;;;11.86;100.00
10668;BME280;5382;42.136;24.796;2023-04-27T05:07:34;99690.25;;;11.95;100.00
10668;BME280;5382;42.136;24.796;2023-04-27T05:10:01;99697.16;;;11.86;100.00
10668;BME280;5382;42.136;24.796;2023-04-27T05:12:28;99687.28;;;11.88;100.00
10668;BME280;5382;42.136;24.796;2023-04-27T05:14:55;99705.56;;;11.91;100.00
10668;BME280;5382;42.136;24.796;2023-04-27T05:17:22;99693.78;;;11.95;100.00
10668;BME280;5382;42.136;24.796;2023-04-27T05:19:49;99704.59;;;12.04;100.00
10668;BME280;5382;42.136;24.796;2023-04-27T05:22:15;99703.88;;;12.02;100.00
10668;BME280;5382;42.136;24.796;2023-04-27T05:24:43;99706.38;;;12.14;100.00
10668;BME280;5382;42.136;24.796;2023-04-27T05:27:11;99711.78;;;12.24;100.00
10668;BME280;5382;42.136;24.796;2023-04-27T05:29:38;99716.34;;;12.22;100.00
10668;BME280;5382;42.136;24.796;2023-04-27T05:32:05;99715.63;;;12.20;100.00
10668;BME280;5382;42.136;24.796;2023-04-27T05:34:32;99700.13;;;12.04;100.00
10668;BME280;5382;42.136;24.796;2023-04-27T05:36:59;99707.91;;;12.17;100.00
10668;BME280;5382;42.136;24.796;2023-04-27T05:39:25;99708.84;;;12.27;100.00
10668;BME280;5382;42.136;24.796;2023-04-27T05:41:54;99713.38;;;12.36;100.00
10668;BME280;5382;42.136;24.796;2023-04-27T05:44:20;99731.75;;;12.39;100.00
10668;BME280;5382;42.136;24.796;2023-04-27T05:46:49;99711.81;;;12.34;100.00
10668;BME280;5382;42.136;24.796;2023-04-27T05:49:16;99720.41;;;12.37;100.00
10668;BME280;5382;42.136;24.796;2023-04-27T05:51:43;99712.69;;;12.34;100.00
10668;BME280;5382;42.136;24.796;2023-04-27T05:54:10;99724.63;;;12.29;100.00
10668;BME280;5382;42.136;24.796;2023-04-27T05:56:36;99735.25;;;12.29;100.00
10668;BME280;5382;42.136;24.796;2023-04-27T05:59:04;99723.78;;;12.28;100.00
10668;BME280;5382;42.136;24.796;2023-04-27T06:01:31;99728.22;;;12.39;100.00
10668;BME280;5382;42.136;24.796;2023-04-27T06:03:58;99732.69;;;12.38;100.00
10668;BME280;5382;42.136;24.796;2023-04-27T06:06:25;99735.72;;;12.34;100.00
10668;BME280;5382;42.136;24.796;2023-04-27T06:08:53;99734.84;;;12.44;100.00
10668;BME280;5382;42.136;24.796;2023-04-27T06:11:20;99738.19;;;12.47;100.00
10668;BME280;5382;42.136;24.796;2023-04-27T06:13:48;99729.94;;;12.61;100.00
10668;BME280;5382;42.136;24.796;2023-04-27T06:16:16;99737.53;;;12.65;100.00
10668;BME280;5382;42.136;24.796;2023-04-27T06:18:43;99754.81;;;12.60;100.00
10668;BME280;5382;42.136;24.796;2023-04-27T06:21:09;99736.63;;;12.55;100.00
10668;BME280;5382;42.136;24.796;2023-04-27T06:23:36;99736.81;;;12.63;100.00
10668;BME280;5382;42.136;24.796;2023-04-27T06:26:03;99729.69;;;12.64;100.00
10668;BME280;5382;42.136;24.796;2023-04-27T06:28:30;99731.25;;;12.66;100.00
10668;BME280;5382;42.136;24.796;2023-04-27T06:30:57;99734.81;;;12.56;99.96
10668;BME280;5382;42.136;24.796;2023-04-27T06:33:25;99746.72;;;12.61;100.00
10668;BME280;5382;42.136;24.796;2023-04-27T06:35:52;99734.72;;;12.46;99.22
10668;BME280;5382;42.136;24.796;2023-04-27T06:38:18;99756.25;;;12.32;100.00
10668;BME280;5382;42.136;24.796;2023-04-27T06:40:49;99741.13;;;12.43;100.00
10668;BME280;5382;42.136;24.796;2023-04-27T06:43:16;99728.38;;;12.37;100.00
10668;BME280;5382;42.136;24.796;2023-04-27T06:45:43;99743.91;;;12.42;100.00
10668;BME280;5382;42.136;24.796;2023-04-27T06:48:10;99750.97;;;12.53;100.00
10668;BME280;5382;42.136;24.796;2023-04-27T06:50:38;99757.66;;;12.47;100.00
10668;BME280;5382;42.136;24.796;2023-04-27T06:53:05;99736.25;;;12.60;100.00
10668;BME280;5382;42.136;24.796;2023-04-27T06:55:31;99741.28;;;12.63;100.00
10668;BME280;5382;42.136;24.796;2023-04-27T06:57:58;99744.03;;;12.73;100.00
10668;BME280;5382;42.136;24.796;2023-04-27T07:00:25;99754.03;;;12.69;99.67
10668;BME280;5382;42.136;24.796;2023-04-27T07:02:52;99740.75;;;12.80;100.00
10668;BME280;5382;42.136;24.796;2023-04-27T07:05:19;99741.94;;;12.76;99.44
10668;BME280;5382;42.136;24.796;2023-04-27T07:07:47;99745.53;;;12.86;100.00
10668;BME280;5382;42.136;24.796;2023-04-27T07:10:14;99751.88;;;12.95;100.00
10668;BME280;5382;42.136;24.796;2023-04-27T07:12:41;99744.94;;;13.04;100.00
10668;BME280;5382;42.136;24.796;2023-04-27T07:15:08;99747.97;;;13.20;99.61
10668;BME280;5382;42.136;24.796;2023-04-27T07:17:35;99743.66;;;13.40;97.58
10668;BME280;5382;42.136;24.796;2023-04-27T07:20:04;99750.97;;;13.48;96.60
10668;BME280;5382;42.136;24.796;2023-04-27T07:22:31;99759.78;;;13.48;96.37
10668;BME280;5382;42.136;24.796;2023-04-27T07:24:59;99756.06;;;13.61;97.33
10668;BME280;5382;42.136;24.796;2023-04-27T07:27:26;99735.56;;;13.82;97.43
10668;BME280;5382;42.136;24.796;2023-04-27T07:29:53;99749.03;;;13.90;94.18
10668;BME280;5382;42.136;24.796;2023-04-27T07:32:20;99749.50;;;14.05;96.45
10668;BME280;5382;42.136;24.796;2023-04-27T07:34:47;99746.97;;;14.13;94.78
10668;BME280;5382;42.136;24.796;2023-04-27T07:37:15;99732.72;;;14.24;94.76
10668;BME280;5382;42.136;24.796;2023-04-27T07:39:43;99757.06;;;14.19;88.05
10668;BME280;5382;42.136;24.796;2023-04-27T07:42:12;99735.25;;;14.26;89.87
10668;BME280;5382;42.136;24.796;2023-04-27T07:44:39;99730.22;;;14.23;91.42
10668;BME280;5382;42.136;24.796;2023-04-27T07:47:06;99738.34;;;14.40;92.14
10668;BME280;5382;42.136;24.796;2023-04-27T07:49:33;99735.84;;;14.58;90.08
10668;BME280;5382;42.136;24.796;2023-04-27T07:52:00;99735.16;;;14.56;89.75
10668;BME280;5382;42.136;24.796;2023-04-27T07:54:27;99736.56;;;14.60;91.74
10668;BME280;5382;42.136;24.796;2023-04-27T07:56:54;99732.63;;;14.65;92.88
10668;BME280;5382;42.136;24.796;2023-04-27T07:59:23;99741.59;;;14.73;92.71
10668;BME280;5382;42.136;24.796;2023-04-27T08:01:49;99723.06;;;14.91;89.82
10668;BME280;5382;42.136;24.796;2023-04-27T08:04:16;99742.13;;;14.96;84.49
10668;BME280;5382;42.136;24.796;2023-04-27T08:06:43;99741.13;;;15.07;88.14
10668;BME280;5382;42.136;24.796;2023-04-27T08:09:10;99734.13;;;15.16;85.48
10668;BME280;5382;42.136;24.796;2023-04-27T08:11:37;99733.25;;;15.15;81.59
10668;BME280;5382;42.136;24.796;2023-04-27T08:14:04;99741.13;;;15.17;80.43
10668;BME280;5382;42.136;24.796;2023-04-27T08:16:34;99733.25;;;15.15;77.47
10668;BME280;5382;42.136;24.796;2023-04-27T08:19:01;99724.00;;;15.19;79.72
10668;BME280;5382;42.136;24.796;2023-04-27T08:21:28;99712.31;;;15.30;81.28
10668;BME280;5382;42.136;24.796;2023-04-27T08:23:55;99712.47;;;15.66;77.00
10668;BME280;5382;42.136;24.796;2023-04-27T08:26:22;99714.13;;;16.04;74.58
10668;BME280;5382;42.136;24.796;2023-04-27T08:28:49;99707.47;;;15.90;73.38
10668;BME280;5382;42.136;24.796;2023-04-27T08:31:15;99705.72;;;15.99;72.74
10668;BME280;5382;42.136;24.796;2023-04-27T08:33:44;99696.94;;;15.89;72.09
10668;BME280;5382;42.136;24.796;2023-04-27T08:36:11;99700.53;;;15.98;72.07
10668;BME280;5382;42.136;24.796;2023-04-27T08:38:38;99709.53;;;15.97;71.64
10668;BME280;5382;42.136;24.796;2023-04-27T08:41:04;99695.81;;;15.91;71.07
10668;BME280;5382;42.136;24.796;2023-04-27T08:43:32;99701.69;;;16.13;72.85
10668;BME280;5382;42.136;24.796;2023-04-27T08:46:00;99700.25;;;16.01;73.35
10668;BME280;5382;42.136;24.796;2023-04-27T08:48:27;99691.03;;;16.13;74.78
10668;BME280;5382;42.136;24.796;2023-04-27T08:50:58;99682.72;;;16.34;75.93
10668;BME280;5382;42.136;24.796;2023-04-27T08:53:27;99682.56;;;16.35;73.08
10668;BME280;5382;42.136;24.796;2023-04-27T08:55:54;99689.56;;;16.36;71.99
10668;BME280;5382;42.136;24.796;2023-04-27T08:58:34;99674.88;;;16.50;68.95
10668;BME280;5382;42.136;24.796;2023-04-27T09:01:04;99676.97;;;16.83;68.51
10668;BME280;5382;42.136;24.796;2023-04-27T09:03:31;99667.97;;;16.84;68.04
10668;BME280;5382;42.136;24.796;2023-04-27T09:06:00;99675.94;;;17.02;65.92
10668;BME280;5382;42.136;24.796;2023-04-27T09:08:27;99642.53;;;17.06;66.74
10668;BME280;5382;42.136;24.796;2023-04-27T09:10:54;99658.13;;;17.10;68.56
10668;BME280;5382;42.136;24.796;2023-04-27T09:13:20;99658.75;;;17.04;69.43
10668;BME280;5382;42.136;24.796;2023-04-27T09:15:49;99662.88;;;16.98;65.54
10668;BME280;5382;42.136;24.796;2023-04-27T09:18:18;99658.19;;;17.27;64.02
10668;BME280;5382;42.136;24.796;2023-04-27T09:20:46;99649.59;;;17.41;63.93
10668;BME280;5382;42.136;24.796;2023-04-27T09:23:28;99652.22;;;17.33;63.63
10668;BME280;5382;42.136;24.796;2023-04-27T09:25:56;99651.94;;;17.44;69.35
10668;BME280;5382;42.136;24.796;2023-04-27T09:28:23;99657.31;;;17.52;66.66
10668;BME280;5382;42.136;24.796;2023-04-27T09:30:52;99654.00;;;17.58;63.47
10668;BME280;5382;42.136;24.796;2023-04-27T09:33:23;99641.34;;;17.69;60.61
10668;BME280;5382;42.136;24.796;2023-04-27T09:35:51;99650.25;;;17.35;63.01
10668;BME280;5382;42.136;24.796;2023-04-27T09:38:19;99635.06;;;17.09;65.14
10668;BME280;5382;42.136;24.796;2023-04-27T09:40:48;99635.19;;;17.42;65.03
10668;BME280;5382;42.136;24.796;2023-04-27T09:43:15;99639.78;;;17.58;62.10
10668;BME280;5382;42.136;24.796;2023-04-27T09:45:42;99633.44;;;17.59;60.44
10668;BME280;5382;42.136;24.796;2023-04-27T09:48:11;99651.09;;;17.86;61.50
10668;BME280;5382;42.136;24.796;2023-04-27T09:50:44;99640.34;;;17.78;61.57
10668;BME280;5382;42.136;24.796;2023-04-27T09:53:12;99624.28;;;17.70;63.51
10668;BME280;5382;42.136;24.796;2023-04-27T09:55:44;99630.81;;;17.75;71.79
10668;BME280;5382;42.136;24.796;2023-04-27T09:58:37;99645.97;;;17.58;71.45
10668;BME280;5382;42.136;24.796;2023-04-27T10:01:13;99644.78;;;17.18;67.63
10668;BME280;5382;42.136;24.796;2023-04-27T10:03:58;99643.72;;;17.37;67.67
10668;BME280;5382;42.136;24.796;2023-04-27T10:09:35;99641.84;;;17.30;68.68
10668;BME280;5382;42.136;24.796;2023-04-27T10:12:17;99640.84;;;17.31;72.47
10668;BME280;5382;42.136;24.796;2023-04-27T10:14:51;99633.38;;;17.42;77.92
10668;BME280;5382;42.136;24.796;2023-04-27T10:17:18;99639.31;;;17.28;77.33
10668;BME280;5382;42.136;24.796;2023-04-27T10:19:54;99625.88;;;17.46;80.02
10668;BME280;5382;42.136;24.796;2023-04-27T10:22:21;99631.72;;;17.92;80.54
10668;BME280;5382;42.136;24.796;2023-04-27T10:24:49;99623.72;;;18.00;74.90
10668;BME280;5382;42.136;24.796;2023-04-27T10:27:18;99633.03;;;17.88;72.36
10668;BME280;5382;42.136;24.796;2023-04-27T10:29:49;99630.38;;;17.88;73.58
10668;BME280;5382;42.136;24.796;2023-04-27T10:32:20;99631.72;;;17.84;73.60
10668;BME280;5382;42.136;24.796;2023-04-27T10:34:48;99641.44;;;18.01;72.83
10668;BME280;5382;42.136;24.796;2023-04-27T10:37:16;99637.97;;;18.25;70.99
10668;BME280;5382;42.136;24.796;2023-04-27T10:39:45;99638.63;;;18.44;69.94
10668;BME280;5382;42.136;24.796;2023-04-27T10:42:12;99631.41;;;18.12;70.58
10668;BME280;5382;42.136;24.796;2023-04-27T10:44:39;99632.41;;;18.02;70.50
10668;BME280;5382;42.136;24.796;2023-04-27T10:47:14;99625.69;;;17.98;71.18
10668;BME280;5382;42.136;24.796;2023-04-27T10:49:42;99643.94;;;17.86;74.11
10668;BME280;5382;42.136;24.796;2023-04-27T10:52:08;99639.84;;;17.74;75.90
10668;BME280;5382;42.136;24.796;2023-04-27T10:54:35;99641.44;;;17.51;75.57
10668;BME280;5382;42.136;24.796;2023-04-27T10:57:05;99660.72;;;17.28;64.45
10668;BME280;5382;42.136;24.796;2023-04-27T10:59:33;99654.59;;;17.44;66.25
10668;BME280;5382;42.136;24.796;2023-04-27T11:02:00;99657.72;;;17.31;63.40
10668;BME280;5382;42.136;24.796;2023-04-27T11:04:36;99660.97;;;17.43;63.00
10668;BME280;5382;42.136;24.796;2023-04-27T11:07:04;99654.88;;;17.25;61.39
10668;BME280;5382;42.136;24.796;2023-04-27T11:09:33;99659.69;;;17.21;60.51
10668;BME280;5382;42.136;24.796;2023-04-27T11:12:00;99652.31;;;17.15;61.85
10668;BME280;5382;42.136;24.796;2023-04-27T11:14:28;99650.41;;;17.41;61.37
10668;BME280;5382;42.136;24.796;2023-04-27T11:16:55;99657.72;;;17.31;61.36
10668;BME280;5382;42.136;24.796;2023-04-27T11:19:21;99655.31;;;17.54;60.61
10668;BME280;5382;42.136;24.796;2023-04-27T11:21:50;99651.38;;;17.75;61.36
10668;BME280;5382;42.136;24.796;2023-04-27T11:24:17;99658.72;;;17.73;58.74
10668;BME280;5382;42.136;24.796;2023-04-27T11:26:50;99659.53;;;17.65;58.86
10668;BME280;5382;42.136;24.796;2023-04-27T11:29:17;99657.16;;;17.54;60.01
10668;BME280;5382;42.136;24.796;2023-04-27T11:31:46;99660.47;;;17.48;60.53
10668;BME280;5382;42.136;24.796;2023-04-27T11:34:17;99653.16;;;17.58;59.10
10668;BME280;5382;42.136;24.796;2023-04-27T11:36:54;99667.88;;;17.62;60.43
10668;BME280;5382;42.136;24.796;2023-04-27T11:39:22;99655.91;;;17.74;57.92
10668;BME280;5382;42.136;24.796;2023-04-27T11:41:52;99661.16;;;17.84;57.63
10668;BME280;5382;42.136;24.796;2023-04-27T11:44:24;99663.66;;;17.94;58.67
10668;BME280;5382;42.136;24.796;2023-04-27T11:46:52;99657.47;;;17.85;52.98
10668;BME280;5382;42.136;24.796;2023-04-27T11:49:19;99657.63;;;17.83;54.27
10668;BME280;5382;42.136;24.796;2023-04-27T11:51:45;99656.31;;;17.96;54.05
10668;BME280;5382;42.136;24.796;2023-04-27T11:54:13;99653.00;;;18.02;52.47
10668;BME280;5382;42.136;24.796;2023-04-27T11:56:42;99657.56;;;18.34;52.70
10668;BME280;5382;42.136;24.796;2023-04-27T11:59:19;99661.72;;;18.28;51.08
10668;BME280;5382;42.136;24.796;2023-04-27T12:01:47;99659.00;;;18.12;50.89
10668;BME280;5382;42.136;24.796;2023-04-27T12:04:14;99660.84;;;18.12;50.06
10668;BME280;5382;42.136;24.796;2023-04-27T12:06:41;99652.84;;;18.20;50.95
10668;BME280;5382;42.136;24.796;2023-04-27T12:09:08;99650.50;;;18.66;50.98
10668;BME280;5382;42.136;24.796;2023-04-27T12:11:35;99651.94;;;19.34;49.42
10668;BME280;5382;42.136;24.796;2023-04-27T12:14:03;99650.44;;;19.31;48.36
10668;BME280;5382;42.136;24.796;2023-04-27T12:16:31;99649.91;;;19.28;47.11
10668;BME280;5382;42.136;24.796;2023-04-27T12:18:58;99636.44;;;19.52;47.59
10668;BME280;5382;42.136;24.796;2023-04-27T12:21:25;99640.97;;;19.52;47.88
10668;BME280;5382;42.136;24.796;2023-04-27T12:23:51;99639.91;;;19.61;47.29
10668;BME280;5382;42.136;24.796;2023-04-27T12:26:18;99640.19;;;20.29;47.31
10668;BME280;5382;42.136;24.796;2023-04-27T12:28:45;99644.03;;;21.25;44.68
10668;BME280;5382;42.136;24.796;2023-04-27T12:31:14;99629.06;;;21.67;44.01
10668;BME280;5382;42.136;24.796;2023-04-27T12:33:43;99637.81;;;21.39;40.07
10668;BME280;5382;42.136;24.796;2023-04-27T12:36:10;99634.16;;;21.32;39.89
10668;BME280;5382;42.136;24.796;2023-04-27T12:38:36;99637.94;;;21.46;41.09
10668;BME280;5382;42.136;24.796;2023-04-27T12:41:03;99642.81;;;21.57;38.91
10668;BME280;5382;42.136;24.796;2023-04-27T12:43:30;99631.50;;;21.17;38.57
10668;BME280;5382;42.136;24.796;2023-04-27T12:45:57;99635.03;;;21.47;39.24
10668;BME280;5382;42.136;24.796;2023-04-27T12:48:25;99625.31;;;22.04;38.40
10668;BME280;5382;42.136;24.796;2023-04-27T12:50:52;99629.72;;;22.05;39.88
10668;BME280;5382;42.136;24.796;2023-04-27T12:53:18;99630.47;;;21.33;42.32
10668;BME280;5382;42.136;24.796;2023-04-27T12:55:46;99629.31;;;19.99;46.11
10668;BME280;5382;42.136;24.796;2023-04-27T12:58:12;99628.81;;;19.25;48.58
10668;BME280;5382;42.136;24.796;2023-04-27T13:00:39;99630.75;;;18.91;51.25